Мир виртуальной авиации

Полеты на авиасимуляторах
...

Аэропорт LYTV

  METAR И TAF ИНФОРМАЦИЯ
METAR FOR LYTV
ADDS - METARS form results

(2321 UTC 28 January 2023)
Data provider http://aviationweather.gov/metar/data/
 
METAR text: LYTV 282300Z AUTO VRB06KT 9999 OVC068/// 08/M03 Q1017
Conditions at: LYTV (TIVAT , ME) observed 2300 UTC 28 January 2023
Temperature: 8.0°C (46°F)
Dewpoint: -3.0°C (27°F) [RH = 46%]
Pressure (altimeter): 30.03 inches Hg (1017.0 mb)
Winds: variable direction winds at 7 MPH (6 knots; 3.1 m/s)
Visibility: 6 or more miles (10+ km)
Ceiling: 6800 feet AGL
Clouds: overcast cloud deck at 6800 feet AGL
Weather: no significant weather observed at this time

METAR text: LYTV 282230Z AUTO VRB03KT 9999 OVC067/// 08/M03 Q1017
Conditions at: LYTV (TIVAT , ME) observed 2230 UTC 28 January 2023
Temperature: 8.0°C (46°F)
Dewpoint: -3.0°C (27°F) [RH = 46%]
Pressure (altimeter): 30.03 inches Hg (1017.0 mb)
Winds: variable direction winds at 3 MPH (3 knots; 1.5 m/s)
Visibility: 6 or more miles (10+ km)
Ceiling: 6700 feet AGL
Clouds: overcast cloud deck at 6700 feet AGL
Weather: no significant weather observed at this time

Forecast for: LYTV (TIVAT , ME)
Text: TAF LYTV 282300Z 2900/2924 02009KT 9999 SCT050 TX13/2913Z TN04/2906Z
Forecast period: 0000 UTC 29 January 2023 to 0000 UTC 30 January 2023
Forecast type: FROM: standard forecast or significant change
Winds: from the NNE (20 degrees) at 10 MPH (9 knots; 4.6 m/s)
Visibility: 6 or more miles (10+ km)
Ceiling: at least 12,000 feet AGL
Clouds: scattered clouds at 5000 feet AGL
Weather: no significant weather forecast for this period
Text: PROB40
Forecast period: 0000 to 1200 UTC 29 January 2023
Forecast type: TEMPORARY: The following changes expected for less than half the time period
Winds: from the NNE (30 degrees) at 17 MPH (15 knots; 7.7 m/s)
gusting to 29 MPH (25 knots; 12.9 m/s)
Visibility: missing
Ceiling: unknown
Clouds: missing
Weather: no significant weather forecast for this period
Text: TEMPO 2900/2912 03015G25KT
Forecast period: 1600 to 2200 UTC 29 January 2023
Forecast type: TEMPORARY: The following changes expected for less than half the time period
Winds: from the NE (40 degrees) at 22 MPH (19 knots; 9.8 m/s)
Visibility: missing
Ceiling: unknown
Clouds: missing
Weather: no significant weather forecast for this period

  КАРТА АЭРОПОРТ
  ИНФОРМАЦИЯ О ВПП
ВПП 14 Длина ВПП 8208 ft Ширина ВПП 148 ft
Высота ВПП 7 ft Порог смещения ВПП 0 ft Курс ВПП 139
ВПП 32 Длина ВПП 8208 ft Ширина ВПП 148 ft
Высота ВПП 16 ft Порог смещения ВПП 0 ft Курс ВПП 319
  ЧАСТОТА АЭРОПОРТА
Тип ARR Название APP Частота 118 MHZ
Тип TWR Название TWR Частота 118 MHZ
  НАВИГАЦИОННЫЕ СРЕДСТВА AIDS
Тип NDB Название Tivat Частота 345 KHZ